createdAt,value
2018-11-07T00:00:07.880Z,28.27
2018-11-07T00:02:37.199Z,26.93
2018-11-07T00:05:06.773Z,26.53
2018-11-07T00:07:35.933Z,26.00
2018-11-07T00:10:06.291Z,25.47
2018-11-07T00:12:35.451Z,25.73
2018-11-07T00:15:04.720Z,24.70
2018-11-07T00:17:33.918Z,28.13
2018-11-07T00:20:03.200Z,28.00
2018-11-07T00:22:32.177Z,26.47
2018-11-07T00:25:01.367Z,26.27
2018-11-07T00:27:30.459Z,25.97
2018-11-07T00:29:59.544Z,25.13
2018-11-07T00:32:28.568Z,26.27
2018-11-07T00:34:57.693Z,24.60
2018-11-07T00:37:26.909Z,27.17
2018-11-07T00:39:56.154Z,25.23
2018-11-07T00:42:25.218Z,24.60
2018-11-07T00:44:54.298Z,24.70
2018-11-07T00:47:29.962Z,27.17
2018-11-07T00:49:59.076Z,25.87
2018-11-07T00:52:28.146Z,26.77
2018-11-07T00:54:57.344Z,25.10
2018-11-07T00:57:26.674Z,26.87
2018-11-07T00:59:55.802Z,25.70
2018-11-07T01:02:24.794Z,27.47
2018-11-07T01:04:53.992Z,31.77
2018-11-07T01:07:23.083Z,28.17
2018-11-07T01:09:52.094Z,26.50
2018-11-07T01:12:21.109Z,29.50
2018-11-07T01:14:50.229Z,27.67
2018-11-07T01:17:19.272Z,26.67
2018-11-07T01:19:48.434Z,28.27
2018-11-07T01:22:17.568Z,26.80
2018-11-07T01:24:46.812Z,26.93
2018-11-07T01:27:15.947Z,28.63
2018-11-07T01:29:44.961Z,28.53
2018-11-07T01:32:13.998Z,28.57
2018-11-07T01:34:43.001Z,31.87
2018-11-07T01:37:12.134Z,26.43
2018-11-07T01:39:41.286Z,27.90
2018-11-07T01:42:10.342Z,26.80
2018-11-07T01:44:39.356Z,26.13
2018-11-07T01:47:08.507Z,29.60
2018-11-07T01:49:37.480Z,28.33
2018-11-07T01:52:06.481Z,28.70
2018-11-07T01:54:35.550Z,29.67
2018-11-07T01:57:04.819Z,31.97
2018-11-07T01:59:33.997Z,32.80
2018-11-07T02:02:03.091Z,30.57
2018-11-07T02:04:32.166Z,32.07
2018-11-07T02:07:01.267Z,29.83
2018-11-07T02:09:30.367Z,31.23
2018-11-07T02:11:59.443Z,32.37
2018-11-07T02:14:28.631Z,33.13
2018-11-07T02:16:57.692Z,33.90
2018-11-07T02:19:27.421Z,33.20
2018-11-07T02:21:56.683Z,34.23
2018-11-07T02:24:25.923Z,35.53
2018-11-07T02:26:54.937Z,33.40
2018-11-07T02:29:24.117Z,34.33
2018-11-07T02:31:53.149Z,32.23
2018-11-07T02:34:22.326Z,29.83
2018-11-07T02:36:51.469Z,29.87
2018-11-07T02:39:20.419Z,31.40
2018-11-07T02:41:49.507Z,31.87
2018-11-07T02:44:18.487Z,32.47
2018-11-07T02:46:47.530Z,31.90
2018-11-07T02:49:16.591Z,32.10
2018-11-07T02:51:45.681Z,31.83
2018-11-07T02:54:14.751Z,31.67
2018-11-07T02:56:43.861Z,31.37
2018-11-07T02:59:12.947Z,33.73
2018-11-07T03:01:41.996Z,31.20
2018-11-07T03:04:11.076Z,33.90
2018-11-07T03:06:40.158Z,31.27
2018-11-07T03:09:09.822Z,31.70
2018-11-07T03:11:38.958Z,30.93
2018-11-07T03:14:08.590Z,31.13
2018-11-07T03:16:37.944Z,33.43
2018-11-07T03:19:07.331Z,33.47
2018-11-07T03:21:36.446Z,35.63
2018-11-07T03:24:05.850Z,37.27
2018-11-07T03:26:34.913Z,37.37
2018-11-07T03:29:04.085Z,36.97
2018-11-07T03:31:33.150Z,37.50
2018-11-07T03:34:02.238Z,36.20
2018-11-07T03:36:31.276Z,35.13
2018-11-07T03:39:00.369Z,39.37
2018-11-07T03:41:29.447Z,37.70
2018-11-07T03:43:58.519Z,44.67
2018-11-07T03:46:27.654Z,42.57
2018-11-07T03:48:56.807Z,46.43
2018-11-07T03:51:25.935Z,43.63
2018-11-07T03:53:55.073Z,48.97
2018-11-07T03:56:24.214Z,58.83
2018-11-07T03:58:53.205Z,61.83
2018-11-07T04:01:22.277Z,50.57
2018-11-07T04:03:51.289Z,54.07
2018-11-07T04:06:20.374Z,49.40
2018-11-07T04:11:21.537Z,52.93
2018-11-07T04:13:50.597Z,60.43
2018-11-07T04:16:19.803Z,48.30
2018-11-07T04:18:48.892Z,53.30
2018-11-07T04:21:17.923Z,51.57
2018-11-07T04:23:51.309Z,50.40
2018-11-07T04:26:20.402Z,46.87
2018-11-07T04:28:49.609Z,54.00
2018-11-07T04:31:18.667Z,42.53
2018-11-07T04:33:47.748Z,50.37
2018-11-07T04:36:16.909Z,52.03
2018-11-07T04:38:46.265Z,53.57
2018-11-07T04:41:15.387Z,45.83
2018-11-07T04:43:44.490Z,54.60
2018-11-07T04:46:13.548Z,51.60
2018-11-07T04:48:42.952Z,54.57
2018-11-07T04:51:12.174Z,49.93
2018-11-07T04:53:41.250Z,61.13
2018-11-07T04:56:10.383Z,55.13
2018-11-07T04:58:39.649Z,48.87
2018-11-07T05:01:08.882Z,58.00
2018-11-07T05:03:37.910Z,43.63
2018-11-07T05:06:06.988Z,48.20
2018-11-07T05:08:36.074Z,57.30
2018-11-07T05:11:05.252Z,51.00
2018-11-07T05:13:34.410Z,42.23
2018-11-07T05:16:03.891Z,53.57
2018-11-07T05:18:33.015Z,51.63
2018-11-07T05:21:02.170Z,52.77
2018-11-07T05:23:31.503Z,51.40
2018-11-07T05:26:00.756Z,60.97
2018-11-07T05:28:29.691Z,46.47
2018-11-07T05:30:58.747Z,50.10
2018-11-07T05:33:27.796Z,52.53
2018-11-07T05:35:56.853Z,49.37
2018-11-07T05:38:25.904Z,56.40
2018-11-07T05:40:55.034Z,46.10
2018-11-07T05:43:24.090Z,57.97
2018-11-07T05:45:53.329Z,49.10
2018-11-07T05:48:22.420Z,49.97
2018-11-07T05:50:51.497Z,41.33
2018-11-07T05:53:20.507Z,45.93
2018-11-07T05:55:49.517Z,43.70
2018-11-07T05:58:18.789Z,44.13
2018-11-07T06:00:48.812Z,50.10
2018-11-07T06:03:17.932Z,51.27
2018-11-07T06:05:47.096Z,48.50
2018-11-07T06:08:16.202Z,39.83
2018-11-07T06:10:45.250Z,46.10
2018-11-07T06:13:14.802Z,40.93
2018-11-07T06:15:44.214Z,41.30
2018-11-07T06:18:13.299Z,40.50
2018-11-07T06:20:42.581Z,51.07
2018-11-07T06:23:11.672Z,41.87
2018-11-07T06:25:40.841Z,43.23
2018-11-07T06:28:10.001Z,53.50
2018-11-07T06:30:39.154Z,42.83
2018-11-07T06:33:08.273Z,50.20
2018-11-07T06:35:37.347Z,55.43
2018-11-07T06:38:06.750Z,51.87
2018-11-07T06:40:35.876Z,54.80
2018-11-07T06:43:04.982Z,45.93
2018-11-07T06:45:34.017Z,52.83
2018-11-07T06:48:03.152Z,49.17
2018-11-07T06:50:32.284Z,42.63
2018-11-07T06:53:01.512Z,52.87
2018-11-07T06:55:30.669Z,46.77
2018-11-07T06:57:59.663Z,50.97
2018-11-07T07:00:33.021Z,41.07
2018-11-07T07:03:03.011Z,43.80
2018-11-07T07:05:32.106Z,51.00
2018-11-07T07:08:01.275Z,46.67
2018-11-07T07:10:30.619Z,44.37
2018-11-07T07:12:59.641Z,39.63
2018-11-07T07:15:28.715Z,40.50
2018-11-07T07:17:57.854Z,44.20
2018-11-07T07:20:26.933Z,43.63
2018-11-07T07:22:55.983Z,42.53
2018-11-07T07:25:25.073Z,44.63
2018-11-07T07:27:53.973Z,37.07
2018-11-07T07:30:23.283Z,42.73
2018-11-07T07:32:52.603Z,42.57
2018-11-07T07:35:21.618Z,37.47
2018-11-07T07:37:50.778Z,35.20
2018-11-07T07:40:19.898Z,43.27
2018-11-07T07:42:48.961Z,38.97
2018-11-07T07:45:19.178Z,45.50
2018-11-07T07:47:48.341Z,41.00
2018-11-07T07:50:18.445Z,43.90
2018-11-07T07:52:47.537Z,42.37
2018-11-07T07:55:16.583Z,36.50
2018-11-07T07:57:45.622Z,39.37
2018-11-07T08:00:16.932Z,36.10
2018-11-07T08:02:47.106Z,43.43
2018-11-07T08:05:16.271Z,42.40
2018-11-07T08:07:45.871Z,39.07
2018-11-07T08:10:16.231Z,38.27
2018-11-07T08:12:45.736Z,36.60
2018-11-07T08:15:15.237Z,35.83
2018-11-07T08:17:44.814Z,36.97
2018-11-07T08:20:14.946Z,38.97
2018-11-07T08:22:44.868Z,35.47
2018-11-07T08:25:14.172Z,33.20
2018-11-07T08:27:43.234Z,35.03
2018-11-07T08:30:14.455Z,36.37
2018-11-07T08:32:43.686Z,40.77
2018-11-07T08:35:13.638Z,36.97
2018-11-07T08:37:43.634Z,36.13
2018-11-07T08:40:14.815Z,34.13
2018-11-07T08:42:44.037Z,33.40
2018-11-07T08:45:13.438Z,35.57
2018-11-07T08:47:43.174Z,38.00
2018-11-07T08:50:17.199Z,34.13
2018-11-07T08:52:47.138Z,37.13
2018-11-07T08:55:23.128Z,35.97
2018-11-07T08:57:52.371Z,39.27
2018-11-07T09:00:23.500Z,35.27
2018-11-07T09:02:52.709Z,38.53
2018-11-07T09:05:22.559Z,35.17
2018-11-07T09:07:51.739Z,35.43
2018-11-07T09:10:22.203Z,36.30
2018-11-07T09:12:51.250Z,35.87
2018-11-07T09:15:21.596Z,35.23
2018-11-07T09:17:50.751Z,35.27
2018-11-07T09:20:21.081Z,36.60
2018-11-07T09:22:50.263Z,34.50
2018-11-07T09:25:19.404Z,32.93
2018-11-07T09:27:48.685Z,30.97
2018-11-07T09:30:19.976Z,38.17
2018-11-07T09:32:49.148Z,37.80
2018-11-07T09:35:18.597Z,34.67
2018-11-07T09:37:47.797Z,38.93
2018-11-07T09:40:18.177Z,36.50
2018-11-07T09:42:47.867Z,34.87
2018-11-07T09:45:18.533Z,31.07
2018-11-07T09:47:47.952Z,32.30
2018-11-07T09:50:17.701Z,36.63
2018-11-07T09:52:47.017Z,33.43
2018-11-07T09:55:17.351Z,34.63
2018-11-07T09:57:46.591Z,32.90
2018-11-07T10:00:17.802Z,30.43
2018-11-07T10:02:47.042Z,32.40
2018-11-07T10:05:17.196Z,32.60
2018-11-07T10:07:46.369Z,36.37
2018-11-07T10:10:16.791Z,34.83
2018-11-07T10:12:46.209Z,34.83
2018-11-07T10:15:15.510Z,31.93
2018-11-07T10:17:44.518Z,31.73
2018-11-07T10:20:15.620Z,33.03
2018-11-07T10:22:45.345Z,31.23
2018-11-07T10:25:14.726Z,32.17
2018-11-07T10:27:44.000Z,32.00
2018-11-07T10:30:15.693Z,34.60
2018-11-07T10:32:45.401Z,31.33
2018-11-07T10:35:14.556Z,30.57
2018-11-07T10:37:43.771Z,30.53
2018-11-07T10:40:14.953Z,30.97
2018-11-07T10:42:44.466Z,31.87
2018-11-07T10:45:13.554Z,29.97
2018-11-07T10:47:43.752Z,33.23
2018-11-07T10:50:13.839Z,30.77
2018-11-07T10:52:43.735Z,30.57
2018-11-07T10:55:13.835Z,32.20
2018-11-07T10:57:43.000Z,31.40
2018-11-07T11:00:19.274Z,31.10
2018-11-07T11:03:50.719Z,32.67
2018-11-07T11:06:19.927Z,32.90
2018-11-07T11:08:49.177Z,29.33
2018-11-07T11:11:18.553Z,32.77
2018-11-07T11:13:47.781Z,32.43
2018-11-07T11:16:17.052Z,31.50
2018-11-07T11:18:46.108Z,33.27
2018-11-07T11:21:15.237Z,34.07
2018-11-07T11:23:44.459Z,33.40
2018-11-07T11:26:13.709Z,30.67
2018-11-07T11:28:43.257Z,30.13
2018-11-07T11:31:12.504Z,33.10
2018-11-07T11:33:41.578Z,32.87
2018-11-07T11:36:10.616Z,33.20
2018-11-07T11:38:40.178Z,33.37
2018-11-07T11:41:09.645Z,32.27
2018-11-07T11:43:38.675Z,32.67
2018-11-07T11:46:07.961Z,31.70
2018-11-07T11:48:37.228Z,32.37
2018-11-07T11:51:06.656Z,33.90
2018-11-07T11:53:35.738Z,35.00
2018-11-07T11:56:04.928Z,33.13
2018-11-07T11:58:34.021Z,33.87
2018-11-07T12:01:03.053Z,31.83
2018-11-07T12:03:32.569Z,33.47
2018-11-07T12:06:01.633Z,31.63
2018-11-07T12:08:30.875Z,31.07
2018-11-07T12:10:59.884Z,33.70
2018-11-07T12:13:29.169Z,32.23
2018-11-07T12:15:58.235Z,32.30
2018-11-07T12:18:27.585Z,33.87
2018-11-07T12:20:56.677Z,34.17
2018-11-07T12:23:25.919Z,33.13
2018-11-07T12:25:55.075Z,34.60
2018-11-07T12:28:24.188Z,34.63
2018-11-07T12:30:53.298Z,33.43
2018-11-07T12:33:22.663Z,36.30
2018-11-07T12:35:51.903Z,36.83
2018-11-07T12:38:21.097Z,35.00
2018-11-07T12:40:50.947Z,36.77
2018-11-07T12:43:20.053Z,35.63
2018-11-07T12:45:49.182Z,34.07
2018-11-07T12:48:18.240Z,34.20
2018-11-07T12:50:47.458Z,31.97
2018-11-07T12:53:16.879Z,37.27
2018-11-07T12:55:45.928Z,33.87
2018-11-07T12:58:15.092Z,34.00
2018-11-07T13:00:44.470Z,35.00
2018-11-07T13:03:13.772Z,32.37
2018-11-07T13:05:43.286Z,35.10
2018-11-07T13:08:12.433Z,32.33
2018-11-07T13:10:41.550Z,33.20
2018-11-07T13:13:10.901Z,35.43
2018-11-07T13:15:40.779Z,34.50
2018-11-07T13:18:10.044Z,34.40
2018-11-07T13:20:39.595Z,37.60
2018-11-07T13:23:08.698Z,36.20
2018-11-07T13:25:38.167Z,35.97
2018-11-07T13:28:07.258Z,36.70
2018-11-07T13:30:36.187Z,33.50
2018-11-07T13:33:05.778Z,36.43
2018-11-07T13:35:35.367Z,35.10
2018-11-07T13:38:04.662Z,36.47
2018-11-07T13:40:33.475Z,34.53
2018-11-07T13:43:02.599Z,34.00
2018-11-07T13:45:31.712Z,36.23
2018-11-07T13:48:00.769Z,34.07
2018-11-07T13:50:29.989Z,31.37
2018-11-07T13:52:59.092Z,33.93
2018-11-07T13:55:28.200Z,35.50
2018-11-07T13:57:57.458Z,34.40
2018-11-07T14:00:26.569Z,33.37
2018-11-07T14:02:55.625Z,34.50
2018-11-07T14:05:24.702Z,34.90
2018-11-07T14:07:53.727Z,33.17
2018-11-07T14:10:24.997Z,32.87
2018-11-07T14:12:54.441Z,31.77
2018-11-07T14:15:30.186Z,33.03
2018-11-07T14:17:59.308Z,32.43
2018-11-07T14:20:28.603Z,30.97
2018-11-07T14:22:57.801Z,32.87
2018-11-07T14:25:27.112Z,33.00
2018-11-07T14:27:56.569Z,32.73
2018-11-07T14:30:25.959Z,31.83
2018-11-07T14:32:57.063Z,32.47
2018-11-07T14:35:26.127Z,34.10
2018-11-07T14:37:56.191Z,35.67
2018-11-07T14:40:25.316Z,34.13
2018-11-07T14:42:54.539Z,32.13
2018-11-07T14:45:23.778Z,33.37
2018-11-07T14:47:53.066Z,32.03
2018-11-07T14:50:22.233Z,31.93
2018-11-07T14:52:51.285Z,31.47
2018-11-07T14:55:20.279Z,34.10
2018-11-07T14:57:50.541Z,35.77
2018-11-07T15:00:19.873Z,34.00
2018-11-07T15:02:49.036Z,32.43
2018-11-07T15:05:19.599Z,31.50
2018-11-07T15:07:48.768Z,33.40
2018-11-07T15:10:18.244Z,34.00
2018-11-07T15:12:47.831Z,35.33
2018-11-07T15:15:18.456Z,35.60
2018-11-07T15:17:47.579Z,35.77
2018-11-07T15:20:17.894Z,34.60
2018-11-07T15:22:48.228Z,35.60
2018-11-07T15:25:17.614Z,36.67
2018-11-07T15:27:47.364Z,37.00
2018-11-07T15:30:17.076Z,36.40
2018-11-07T15:32:46.556Z,35.57
2018-11-07T15:35:15.608Z,35.77
2018-11-07T15:37:44.723Z,36.77
2018-11-07T15:40:16.176Z,37.63
2018-11-07T15:42:45.725Z,35.07
2018-11-07T15:45:17.297Z,38.57
2018-11-07T15:47:46.562Z,34.83
2018-11-07T15:52:24.231Z,37.23
2018-11-07T15:54:53.388Z,37.90
2018-11-07T15:57:22.507Z,33.20
2018-11-07T15:59:51.616Z,38.70
2018-11-07T16:02:20.754Z,39.50
2018-11-07T16:04:50.309Z,36.40
2018-11-07T16:07:20.305Z,38.47
2018-11-07T16:09:51.139Z,35.37
2018-11-07T16:12:20.411Z,39.83
2018-11-07T16:14:49.529Z,40.00
2018-11-07T16:17:18.618Z,37.97
2018-11-07T16:19:47.693Z,38.50
2018-11-07T16:22:16.753Z,39.07
2018-11-07T16:24:45.887Z,36.47
2018-11-07T16:27:14.944Z,36.10
2018-11-07T16:29:44.087Z,35.13
2018-11-07T16:32:13.587Z,34.80
2018-11-07T16:34:42.838Z,38.70
2018-11-07T16:37:11.876Z,34.03
2018-11-07T16:39:41.319Z,36.03
2018-11-07T16:42:10.448Z,38.20
2018-11-07T16:44:39.474Z,36.93
2018-11-07T16:47:08.574Z,34.53
2018-11-07T16:49:37.578Z,38.70
2018-11-07T16:52:06.679Z,36.13
2018-11-07T16:54:36.001Z,35.50
2018-11-07T16:57:05.074Z,34.87
2018-11-07T16:59:34.148Z,35.87
2018-11-07T17:02:03.492Z,36.63
2018-11-07T17:04:32.591Z,34.20
2018-11-07T17:07:01.694Z,33.80
2018-11-07T17:09:30.736Z,35.80
2018-11-07T17:11:59.896Z,39.23
2018-11-07T17:14:29.073Z,36.23
2018-11-07T17:16:58.106Z,36.60
2018-11-07T17:19:27.371Z,38.07
2018-11-07T17:21:56.651Z,34.43
2018-11-07T17:24:25.960Z,37.23
2018-11-07T17:26:54.826Z,39.03
2018-11-07T17:29:23.998Z,34.47
2018-11-07T17:31:53.273Z,38.23
2018-11-07T17:34:22.412Z,36.60
2018-11-07T17:36:51.462Z,36.37
2018-11-07T17:39:20.826Z,37.80
2018-11-07T17:41:49.874Z,37.03
2018-11-07T17:44:19.015Z,39.83
2018-11-07T17:46:48.054Z,40.80
2018-11-07T17:49:17.085Z,37.80
2018-11-07T17:51:46.145Z,38.23
2018-11-07T17:54:15.162Z,38.80
2018-11-07T17:56:44.240Z,38.07
2018-11-07T17:59:13.363Z,37.27
2018-11-07T18:01:42.533Z,35.07
2018-11-07T18:04:12.323Z,39.10
2018-11-07T18:06:41.524Z,37.70
2018-11-07T18:09:10.894Z,37.57
2018-11-07T18:11:40.070Z,37.93
2018-11-07T18:14:09.584Z,38.33
2018-11-07T18:16:38.787Z,35.00
2018-11-07T18:19:08.298Z,41.03
2018-11-07T18:21:37.451Z,35.10
2018-11-07T18:24:06.635Z,40.00
2018-11-07T18:26:35.773Z,35.60
2018-11-07T18:29:05.389Z,38.13
2018-11-07T18:31:34.455Z,38.13
2018-11-07T18:34:03.542Z,36.83
2018-11-07T18:36:32.639Z,39.57
2018-11-07T18:39:01.947Z,37.87
2018-11-07T18:41:31.011Z,36.53
2018-11-07T18:44:00.201Z,42.60
2018-11-07T18:46:30.480Z,39.57
2018-11-07T18:49:00.007Z,53.53
2018-11-07T18:51:29.127Z,51.77
2018-11-07T18:53:58.472Z,52.30
2018-11-07T18:56:29.569Z,53.90
2018-11-07T18:59:00.198Z,45.00
2018-11-07T19:01:30.154Z,45.07
2018-11-07T19:04:00.913Z,45.57
2018-11-07T19:06:31.153Z,43.60
2018-11-07T19:09:01.550Z,44.33
2018-11-07T19:11:31.299Z,43.47
2018-11-07T19:14:02.245Z,45.37
2018-11-07T19:16:32.025Z,42.93
2018-11-07T19:19:04.135Z,46.03
2018-11-07T19:21:33.505Z,41.17
2018-11-07T19:24:02.981Z,38.57
2018-11-07T19:26:34.168Z,40.67
2018-11-07T19:29:04.114Z,39.87
2018-11-07T19:31:33.193Z,38.27
2018-11-07T19:34:05.516Z,36.80
2018-11-07T19:36:35.951Z,37.27
2018-11-07T19:39:09.604Z,37.20
2018-11-07T19:41:39.353Z,36.80
2018-11-07T19:44:09.110Z,39.57
2018-11-07T19:46:38.322Z,34.43
2018-11-07T19:49:15.365Z,40.93
2018-11-07T19:51:44.699Z,37.37
2018-11-07T19:54:15.408Z,34.60
2018-11-07T19:56:45.715Z,37.30
2018-11-07T19:59:15.876Z,40.17
2018-11-07T20:01:45.636Z,40.47
2018-11-07T20:04:15.422Z,38.50
2018-11-07T20:06:44.590Z,43.73
2018-11-07T20:09:13.979Z,44.00
2018-11-07T20:11:43.172Z,45.60
2018-11-07T20:14:12.287Z,39.23
2018-11-07T20:16:41.480Z,49.50
2018-11-07T20:19:10.437Z,40.03
2018-11-07T20:21:39.454Z,46.83
2018-11-07T20:24:08.726Z,47.50
2018-11-07T20:26:37.935Z,42.93
2018-11-07T20:29:07.011Z,44.07
2018-11-07T20:31:36.193Z,45.10
2018-11-07T20:34:05.423Z,42.10
2018-11-07T20:36:34.590Z,47.70
2018-11-07T20:39:05.847Z,44.50
2018-11-07T20:41:35.103Z,47.47
2018-11-07T20:44:04.031Z,45.43
2018-11-07T20:46:33.054Z,46.33
2018-11-07T20:49:02.250Z,38.23
2018-11-07T20:51:31.311Z,37.90
2018-11-07T20:54:00.565Z,40.00
2018-11-07T20:56:29.782Z,40.47
2018-11-07T20:58:58.806Z,41.90
2018-11-07T21:01:28.023Z,36.90
2018-11-07T21:03:57.054Z,40.80
2018-11-07T21:06:26.188Z,42.90
2018-11-07T21:08:55.362Z,37.83
2018-11-07T21:11:24.481Z,43.63
2018-11-07T21:13:53.577Z,40.33
2018-11-07T21:16:22.690Z,48.60
2018-11-07T21:18:51.730Z,38.00
2018-11-07T21:21:20.766Z,38.20
2018-11-07T21:23:49.870Z,39.37
2018-11-07T21:26:19.052Z,45.23
2018-11-07T21:28:48.135Z,39.87
2018-11-07T21:31:17.431Z,41.60
2018-11-07T21:33:46.660Z,45.20
2018-11-07T21:36:15.677Z,47.27
2018-11-07T21:38:44.748Z,50.63
2018-11-07T21:41:13.923Z,44.53
2018-11-07T21:43:43.057Z,45.30
2018-11-07T21:46:12.146Z,45.10
2018-11-07T21:48:41.597Z,43.77
2018-11-07T21:51:10.751Z,42.33
2018-11-07T21:53:39.990Z,48.33
2018-11-07T21:56:09.122Z,48.17
2018-11-07T21:58:38.290Z,49.27
2018-11-07T22:01:07.300Z,46.57
2018-11-07T22:03:36.391Z,41.03
2018-11-07T22:06:05.458Z,36.53
2018-11-07T22:08:34.484Z,36.43
2018-11-07T22:11:03.772Z,44.53
2018-11-07T22:13:32.757Z,39.53
2018-11-07T22:16:01.841Z,35.73
2018-11-07T22:18:31.006Z,33.57
2018-11-07T22:21:00.065Z,40.10
2018-11-07T22:23:29.185Z,39.97
2018-11-07T22:25:58.402Z,37.07
2018-11-07T22:28:27.433Z,39.77
2018-11-07T22:30:56.485Z,42.37
2018-11-07T22:33:25.558Z,36.57
2018-11-07T22:35:54.550Z,41.10
2018-11-07T22:38:23.919Z,34.67
2018-11-07T22:40:53.118Z,40.10
2018-11-07T22:43:22.194Z,43.93
2018-11-07T22:45:51.323Z,40.87
2018-11-07T22:48:20.511Z,37.50
2018-11-07T22:50:49.709Z,43.87
2018-11-07T22:53:18.801Z,49.03
2018-11-07T22:55:47.901Z,45.33
2018-11-07T22:58:17.234Z,47.00
2018-11-07T23:00:51.761Z,44.33
2018-11-07T23:03:21.632Z,36.80
2018-11-07T23:05:50.844Z,43.53
2018-11-07T23:08:20.114Z,38.97
2018-11-07T23:10:49.247Z,47.43
2018-11-07T23:13:18.505Z,43.43
2018-11-07T23:15:48.446Z,37.63
2018-11-07T23:18:19.103Z,43.50
2018-11-07T23:20:48.332Z,42.40
2018-11-07T23:23:17.825Z,43.57
2018-11-07T23:25:47.214Z,41.60
2018-11-07T23:28:16.250Z,43.67
2018-11-07T23:30:45.711Z,40.03
2018-11-07T23:33:14.792Z,37.93
2018-11-07T23:35:43.997Z,44.53
2018-11-07T23:38:12.986Z,48.27
2018-11-07T23:40:42.191Z,47.87
2018-11-07T23:43:11.187Z,47.77
2018-11-07T23:45:40.285Z,47.03
2018-11-07T23:48:09.344Z,50.20
2018-11-07T23:50:38.447Z,40.63
2018-11-07T23:53:07.616Z,46.80
2018-11-07T23:55:36.856Z,39.57
2018-11-07T23:58:06.590Z,40.60
